sensor_id;sensor_type;location;lat;lon;timestamp;temperature;humidity
21646;DHT22;10984;45.712;4.800;2022-11-28T00:01:13;9.70;99.90
21646;DHT22;10984;45.712;4.800;2022-11-28T00:03:39;9.80;99.90
21646;DHT22;10984;45.712;4.800;2022-11-28T00:06:06;9.80;99.90
21646;DHT22;10984;45.712;4.800;2022-11-28T00:08:33;9.80;99.90
21646;DHT22;10984;45.712;4.800;2022-11-28T00:11:06;9.80;99.90
21646;DHT22;10984;45.712;4.800;2022-11-28T00:13:32;9.90;99.90
21646;DHT22;10984;45.712;4.800;2022-11-28T00:15:59;9.90;99.90
21646;DHT22;10984;45.712;4.800;2022-11-28T00:18:26;10.00;99.90
21646;DHT22;10984;45.712;4.800;2022-11-28T00:20:52;10.00;99.90
21646;DHT22;10984;45.712;4.800;2022-11-28T00:23:22;10.00;99.90
21646;DHT22;10984;45.712;4.800;2022-11-28T00:25:57;10.00;99.90
21646;DHT22;10984;45.712;4.800;2022-11-28T00:28:22;10.10;99.90
21646;DHT22;10984;45.712;4.800;2022-11-28T00:30:48;10.10;99.90
21646;DHT22;10984;45.712;4.800;2022-11-28T00:33:14;10.10;99.90
21646;DHT22;10984;45.712;4.800;2022-11-28T00:35:40;10.00;99.90
21646;DHT22;10984;45.712;4.800;2022-11-28T00:38:05;10.00;99.90
21646;DHT22;10984;45.712;4.800;2022-11-28T00:40:31;10.00;99.90
21646;DHT22;10984;45.712;4.800;2022-11-28T00:42:56;9.90;99.90
21646;DHT22;10984;45.712;4.800;2022-11-28T00:45:22;9.90;99.90
21646;DHT22;10984;45.712;4.800;2022-11-28T00:47:48;9.90;99.90
21646;DHT22;10984;45.712;4.800;2022-11-28T00:50:14;9.90;99.90
21646;DHT22;10984;45.712;4.800;2022-11-28T00:52:39;9.90;99.90
21646;DHT22;10984;45.712;4.800;2022-11-28T00:55:05;10.00;99.90
21646;DHT22;10984;45.712;4.800;2022-11-28T00:57:31;9.90;99.90
21646;DHT22;10984;45.712;4.800;2022-11-28T00:59:57;10.00;99.90
21646;DHT22;10984;45.712;4.800;2022-11-28T01:02:22;9.90;99.90
21646;DHT22;10984;45.712;4.800;2022-11-28T01:04:48;10.00;99.90
21646;DHT22;10984;45.712;4.800;2022-11-28T01:07:14;10.00;99.90
21646;DHT22;10984;45.712;4.800;2022-11-28T01:09:40;9.90;99.90
21646;DHT22;10984;45.712;4.800;2022-11-28T01:12:05;9.90;99.90
21646;DHT22;10984;45.712;4.800;2022-11-28T01:14:31;9.80;99.90
21646;DHT22;10984;45.712;4.800;2022-11-28T01:16:57;9.90;99.90
21646;DHT22;10984;45.712;4.800;2022-11-28T01:19:22;9.90;99.90
21646;DHT22;10984;45.712;4.800;2022-11-28T01:21:48;9.90;99.90
21646;DHT22;10984;45.712;4.800;2022-11-28T01:24:14;9.90;99.90
21646;DHT22;10984;45.712;4.800;2022-11-28T01:26:40;9.80;99.90
21646;DHT22;10984;45.712;4.800;2022-11-28T01:29:06;9.80;99.90
21646;DHT22;10984;45.712;4.800;2022-11-28T01:31:32;9.80;99.90
21646;DHT22;10984;45.712;4.800;2022-11-28T01:33:58;9.90;99.90
21646;DHT22;10984;45.712;4.800;2022-11-28T01:36:25;9.80;99.90
21646;DHT22;10984;45.712;4.800;2022-11-28T01:38:51;9.80;99.90
21646;DHT22;10984;45.712;4.800;2022-11-28T01:41:22;9.80;99.90
21646;DHT22;10984;45.712;4.800;2022-11-28T01:44:57;9.90;99.90
21646;DHT22;10984;45.712;4.800;2022-11-28T01:46:53;9.90;99.90
21646;DHT22;10984;45.712;4.800;2022-11-28T01:49:37;9.90;99.90
21646;DHT22;10984;45.712;4.800;2022-11-28T01:52:11;9.90;99.90
21646;DHT22;10984;45.712;4.800;2022-11-28T01:54:38;9.90;99.90
21646;DHT22;10984;45.712;4.800;2022-11-28T01:57:08;9.90;99.90
21646;DHT22;10984;45.712;4.800;2022-11-28T01:59:40;9.90;99.90
21646;DHT22;10984;45.712;4.800;2022-11-28T02:02:08;9.90;99.90
21646;DHT22;10984;45.712;4.800;2022-11-28T02:04:35;9.90;99.90
21646;DHT22;10984;45.712;4.800;2022-11-28T02:07:01;9.90;99.90
21646;DHT22;10984;45.712;4.800;2022-11-28T02:09:27;9.90;99.90
21646;DHT22;10984;45.712;4.800;2022-11-28T02:30:25;10.10;99.90
21646;DHT22;10984;45.712;4.800;2022-11-28T02:44:24;10.20;99.90
21646;DHT22;10984;45.712;4.800;2022-11-28T02:55:48;10.00;99.90
21646;DHT22;10984;45.712;4.800;2022-11-28T02:58:15;10.10;99.90
21646;DHT22;10984;45.712;4.800;2022-11-28T03:00:46;10.10;99.90
21646;DHT22;10984;45.712;4.800;2022-11-28T03:12:24;10.00;99.90
21646;DHT22;10984;45.712;4.800;2022-11-28T03:14:56;10.00;99.90
21646;DHT22;10984;45.712;4.800;2022-11-28T03:23:31;10.00;99.90
21646;DHT22;10984;45.712;4.800;2022-11-28T03:31:38;9.90;99.90
21646;DHT22;10984;45.712;4.800;2022-11-28T03:34:08;9.90;99.90
21646;DHT22;10984;45.712;4.800;2022-11-28T03:36:56;9.90;99.90
21646;DHT22;10984;45.712;4.800;2022-11-28T03:39:31;9.90;99.90
21646;DHT22;10984;45.712;4.800;2022-11-28T03:42:26;9.90;99.90
21646;DHT22;10984;45.712;4.800;2022-11-28T03:47:57;9.90;99.90
21646;DHT22;10984;45.712;4.800;2022-11-28T03:53:37;9.90;99.90
21646;DHT22;10984;45.712;4.800;2022-11-28T03:56:18;9.90;99.90
21646;DHT22;10984;45.712;4.800;2022-11-28T04:24:29;9.60;99.90
21646;DHT22;10984;45.712;4.800;2022-11-28T04:27:07;9.60;99.90
21646;DHT22;10984;45.712;4.800;2022-11-28T04:29:42;9.60;99.90
21646;DHT22;10984;45.712;4.800;2022-11-28T04:32:10;9.60;99.90
21646;DHT22;10984;45.712;4.800;2022-11-28T04:34:38;9.60;99.90
21646;DHT22;10984;45.712;4.800;2022-11-28T04:37:06;9.60;99.90
21646;DHT22;10984;45.712;4.800;2022-11-28T04:39:34;9.60;99.90
21646;DHT22;10984;45.712;4.800;2022-11-28T04:42:14;9.60;99.90
21646;DHT22;10984;45.712;4.800;2022-11-28T04:47:25;9.70;99.90
21646;DHT22;10984;45.712;4.800;2022-11-28T04:49:52;9.70;99.90
21646;DHT22;10984;45.712;4.800;2022-11-28T05:00:19;9.80;99.90
21646;DHT22;10984;45.712;4.800;2022-11-28T05:02:48;9.90;99.90
21646;DHT22;10984;45.712;4.800;2022-11-28T05:05:40;9.90;99.90
21646;DHT22;10984;45.712;4.800;2022-11-28T05:08:06;9.90;99.90
21646;DHT22;10984;45.712;4.800;2022-11-28T05:10:32;9.90;99.90
21646;DHT22;10984;45.712;4.800;2022-11-28T05:12:57;9.90;99.90
21646;DHT22;10984;45.712;4.800;2022-11-28T05:15:23;9.90;99.90
21646;DHT22;10984;45.712;4.800;2022-11-28T05:17:48;9.90;99.90
21646;DHT22;10984;45.712;4.800;2022-11-28T05:20:14;9.90;99.90
21646;DHT22;10984;45.712;4.800;2022-11-28T05:22:40;9.90;99.90
21646;DHT22;10984;45.712;4.800;2022-11-28T05:25:06;9.90;99.90
21646;DHT22;10984;45.712;4.800;2022-11-28T05:27:32;9.90;99.90
21646;DHT22;10984;45.712;4.800;2022-11-28T05:29:57;9.90;99.90
21646;DHT22;10984;45.712;4.800;2022-11-28T05:32:23;9.90;99.90
21646;DHT22;10984;45.712;4.800;2022-11-28T05:34:49;9.90;99.90
21646;DHT22;10984;45.712;4.800;2022-11-28T05:37:15;9.90;99.90
21646;DHT22;10984;45.712;4.800;2022-11-28T05:39:40;9.90;99.90
21646;DHT22;10984;45.712;4.800;2022-11-28T05:42:06;9.90;99.90
21646;DHT22;10984;45.712;4.800;2022-11-28T05:44:32;9.90;99.90
21646;DHT22;10984;45.712;4.800;2022-11-28T05:46:57;9.90;99.90
21646;DHT22;10984;45.712;4.800;2022-11-28T05:49:23;9.90;99.90
21646;DHT22;10984;45.712;4.800;2022-11-28T05:51:49;9.90;99.90
21646;DHT22;10984;45.712;4.800;2022-11-28T05:54:15;9.90;99.90
21646;DHT22;10984;45.712;4.800;2022-11-28T05:56:41;9.90;99.90
21646;DHT22;10984;45.712;4.800;2022-11-28T05:59:06;9.80;99.90
21646;DHT22;10984;45.712;4.800;2022-11-28T06:01:32;9.80;99.90
21646;DHT22;10984;45.712;4.800;2022-11-28T06:03:59;9.80;99.90
21646;DHT22;10984;45.712;4.800;2022-11-28T06:06:27;9.80;99.90
21646;DHT22;10984;45.712;4.800;2022-11-28T06:08:53;9.80;99.90
21646;DHT22;10984;45.712;4.800;2022-11-28T06:11:21;9.80;99.90
21646;DHT22;10984;45.712;4.800;2022-11-28T06:13:47;9.90;99.90
21646;DHT22;10984;45.712;4.800;2022-11-28T06:16:16;9.90;99.90
21646;DHT22;10984;45.712;4.800;2022-11-28T06:18:42;9.90;99.90
21646;DHT22;10984;45.712;4.800;2022-11-28T06:21:10;9.90;99.90
21646;DHT22;10984;45.712;4.800;2022-11-28T06:23:36;9.90;99.90
21646;DHT22;10984;45.712;4.800;2022-11-28T06:26:21;9.80;99.90
21646;DHT22;10984;45.712;4.800;2022-11-28T06:28:47;9.80;99.90
21646;DHT22;10984;45.712;4.800;2022-11-28T06:31:16;9.80;99.90
21646;DHT22;10984;45.712;4.800;2022-11-28T06:33:42;9.80;99.90
21646;DHT22;10984;45.712;4.800;2022-11-28T06:36:09;9.80;99.90
21646;DHT22;10984;45.712;4.800;2022-11-28T06:38:35;9.70;99.90
21646;DHT22;10984;45.712;4.800;2022-11-28T06:41:04;9.70;99.90
21646;DHT22;10984;45.712;4.800;2022-11-28T06:43:30;9.70;99.90
21646;DHT22;10984;45.712;4.800;2022-11-28T06:45:56;9.70;99.90
21646;DHT22;10984;45.712;4.800;2022-11-28T06:48:22;9.60;99.90
21646;DHT22;10984;45.712;4.800;2022-11-28T06:50:48;9.60;99.90
21646;DHT22;10984;45.712;4.800;2022-11-28T06:53:14;9.60;99.90
21646;DHT22;10984;45.712;4.800;2022-11-28T06:55:41;9.50;99.90
21646;DHT22;10984;45.712;4.800;2022-11-28T06:58:07;9.50;99.90
21646;DHT22;10984;45.712;4.800;2022-11-28T07:00:33;9.50;99.90
21646;DHT22;10984;45.712;4.800;2022-11-28T07:02:59;9.50;99.90
21646;DHT22;10984;45.712;4.800;2022-11-28T07:05:25;9.50;99.90
21646;DHT22;10984;45.712;4.800;2022-11-28T07:08:09;9.50;99.90
21646;DHT22;10984;45.712;4.800;2022-11-28T07:10:35;9.50;99.90
21646;DHT22;10984;45.712;4.800;2022-11-28T07:13:01;9.50;99.90
21646;DHT22;10984;45.712;4.800;2022-11-28T07:15:27;9.50;99.90
21646;DHT22;10984;45.712;4.800;2022-11-28T07:17:53;9.50;99.90
21646;DHT22;10984;45.712;4.800;2022-11-28T07:20:19;9.50;99.90
21646;DHT22;10984;45.712;4.800;2022-11-28T07:22:46;9.50;99.90
21646;DHT22;10984;45.712;4.800;2022-11-28T07:25:12;9.50;99.90
21646;DHT22;10984;45.712;4.800;2022-11-28T07:27:40;9.50;99.90
21646;DHT22;10984;45.712;4.800;2022-11-28T07:30:06;9.50;99.90
21646;DHT22;10984;45.712;4.800;2022-11-28T07:32:32;9.50;99.90
21646;DHT22;10984;45.712;4.800;2022-11-28T07:34:57;9.50;99.90
21646;DHT22;10984;45.712;4.800;2022-11-28T07:37:23;9.50;99.90
21646;DHT22;10984;45.712;4.800;2022-11-28T07:39:49;9.40;99.90
21646;DHT22;10984;45.712;4.800;2022-11-28T07:42:14;9.40;99.90
21646;DHT22;10984;45.712;4.800;2022-11-28T07:44:40;9.40;99.90
21646;DHT22;10984;45.712;4.800;2022-11-28T07:47:05;9.40;99.90
21646;DHT22;10984;45.712;4.800;2022-11-28T07:49:31;9.40;99.90
21646;DHT22;10984;45.712;4.800;2022-11-28T07:51:57;9.50;99.90
21646;DHT22;10984;45.712;4.800;2022-11-28T07:54:23;9.50;99.90
21646;DHT22;10984;45.712;4.800;2022-11-28T07:56:48;9.50;99.90
21646;DHT22;10984;45.712;4.800;2022-11-28T07:59:15;9.50;99.90
21646;DHT22;10984;45.712;4.800;2022-11-28T08:01:41;9.50;99.90
21646;DHT22;10984;45.712;4.800;2022-11-28T08:04:09;9.50;99.90
21646;DHT22;10984;45.712;4.800;2022-11-28T08:06:38;9.50;99.90
21646;DHT22;10984;45.712;4.800;2022-11-28T08:09:05;9.60;99.90
21646;DHT22;10984;45.712;4.800;2022-11-28T08:11:32;9.60;99.90
21646;DHT22;10984;45.712;4.800;2022-11-28T08:13:59;9.60;99.90
21646;DHT22;10984;45.712;4.800;2022-11-28T08:16:27;9.60;99.90
21646;DHT22;10984;45.712;4.800;2022-11-28T08:18:55;9.60;99.90
21646;DHT22;10984;45.712;4.800;2022-11-28T08:21:40;9.70;99.90
21646;DHT22;10984;45.712;4.800;2022-11-28T08:24:07;9.70;99.90
21646;DHT22;10984;45.712;4.800;2022-11-28T08:26:34;9.70;99.90
21646;DHT22;10984;45.712;4.800;2022-11-28T08:29:02;9.70;99.90
21646;DHT22;10984;45.712;4.800;2022-11-28T08:34:15;9.80;99.90
21646;DHT22;10984;45.712;4.800;2022-11-28T08:36:41;9.90;99.90
21646;DHT22;10984;45.712;4.800;2022-11-28T08:39:09;9.90;99.90
21646;DHT22;10984;45.712;4.800;2022-11-28T08:41:36;10.00;99.90
21646;DHT22;10984;45.712;4.800;2022-11-28T08:44:02;10.00;99.90
21646;DHT22;10984;45.712;4.800;2022-11-28T08:46:29;10.10;99.90
21646;DHT22;10984;45.712;4.800;2022-11-28T08:48:55;10.10;99.90
21646;DHT22;10984;45.712;4.800;2022-11-28T08:51:23;10.20;99.90
21646;DHT22;10984;45.712;4.800;2022-11-28T08:53:50;10.20;99.90
21646;DHT22;10984;45.712;4.800;2022-11-28T08:56:16;10.30;99.90
21646;DHT22;10984;45.712;4.800;2022-11-28T08:58:43;10.30;99.90
21646;DHT22;10984;45.712;4.800;2022-11-28T09:01:29;10.40;99.90
21646;DHT22;10984;45.712;4.800;2022-11-28T09:03:55;10.40;99.90
21646;DHT22;10984;45.712;4.800;2022-11-28T09:06:22;10.40;99.90
21646;DHT22;10984;45.712;4.800;2022-11-28T09:08:49;10.40;99.90
21646;DHT22;10984;45.712;4.800;2022-11-28T09:11:18;10.40;99.90
21646;DHT22;10984;45.712;4.800;2022-11-28T09:13:45;10.40;99.90
21646;DHT22;10984;45.712;4.800;2022-11-28T09:16:11;10.50;99.90
21646;DHT22;10984;45.712;4.800;2022-11-28T09:18:38;10.40;99.90
21646;DHT22;10984;45.712;4.800;2022-11-28T09:21:06;10.40;99.90
21646;DHT22;10984;45.712;4.800;2022-11-28T09:23:54;10.50;99.90
21646;DHT22;10984;45.712;4.800;2022-11-28T09:26:23;10.50;99.90
21646;DHT22;10984;45.712;4.800;2022-11-28T09:28:51;10.50;99.90
21646;DHT22;10984;45.712;4.800;2022-11-28T09:31:18;10.60;99.90
21646;DHT22;10984;45.712;4.800;2022-11-28T09:33:45;10.60;99.90
21646;DHT22;10984;45.712;4.800;2022-11-28T09:39:00;10.70;99.90
21646;DHT22;10984;45.712;4.800;2022-11-28T09:44:52;10.90;99.90
21646;DHT22;10984;45.712;4.800;2022-11-28T09:47:27;10.90;99.90
21646;DHT22;10984;45.712;4.800;2022-11-28T09:58:52;11.10;99.90
21646;DHT22;10984;45.712;4.800;2022-11-28T10:10:53;11.60;99.90
21646;DHT22;10984;45.712;4.800;2022-11-28T10:13:43;11.60;99.90
21646;DHT22;10984;45.712;4.800;2022-11-28T10:19:37;11.60;99.90
21646;DHT22;10984;45.712;4.800;2022-11-28T10:22:08;11.60;99.90
21646;DHT22;10984;45.712;4.800;2022-11-28T10:24:42;11.70;99.90
21646;DHT22;10984;45.712;4.800;2022-11-28T10:27:12;11.70;99.90
21646;DHT22;10984;45.712;4.800;2022-11-28T10:29:59;11.80;99.90
21646;DHT22;10984;45.712;4.800;2022-11-28T10:32:47;11.90;99.90
21646;DHT22;10984;45.712;4.800;2022-11-28T10:38:20;12.00;99.90
21646;DHT22;10984;45.712;4.800;2022-11-28T10:44:17;12.10;99.90
21646;DHT22;10984;45.712;4.800;2022-11-28T10:47:11;12.20;99.90
21646;DHT22;10984;45.712;4.800;2022-11-28T11:01:56;11.80;99.90
21646;DHT22;10984;45.712;4.800;2022-11-28T11:04:25;11.70;99.90
21646;DHT22;10984;45.712;4.800;2022-11-28T11:15:43;11.60;99.90
21646;DHT22;10984;45.712;4.800;2022-11-28T11:18:31;11.70;99.90
21646;DHT22;10984;45.712;4.800;2022-11-28T11:21:18;11.70;99.90
21646;DHT22;10984;45.712;4.800;2022-11-28T11:23:45;11.70;99.90
21646;DHT22;10984;45.712;4.800;2022-11-28T11:26:33;11.70;99.90
21646;DHT22;10984;45.712;4.800;2022-11-28T11:29:02;11.60;99.90
21646;DHT22;10984;45.712;4.800;2022-11-28T11:31:32;11.50;99.90
21646;DHT22;10984;45.712;4.800;2022-11-28T11:34:05;11.50;99.90
21646;DHT22;10984;45.712;4.800;2022-11-28T11:36:34;11.50;99.90
21646;DHT22;10984;45.712;4.800;2022-11-28T11:39:21;11.50;99.90
21646;DHT22;10984;45.712;4.800;2022-11-28T11:42:09;11.50;99.90
21646;DHT22;10984;45.712;4.800;2022-11-28T11:44:36;11.50;99.90
21646;DHT22;10984;45.712;4.800;2022-11-28T11:50:16;11.50;99.90
21646;DHT22;10984;45.712;4.800;2022-11-28T11:52:43;11.40;99.90
21646;DHT22;10984;45.712;4.800;2022-11-28T11:55:14;11.40;99.90
21646;DHT22;10984;45.712;4.800;2022-11-28T11:57:51;11.40;99.90
21646;DHT22;10984;45.712;4.800;2022-11-28T12:02:51;11.30;99.90
21646;DHT22;10984;45.712;4.800;2022-11-28T12:11:32;11.50;99.90
21646;DHT22;10984;45.712;4.800;2022-11-28T12:19:43;11.60;99.90
21646;DHT22;10984;45.712;4.800;2022-11-28T12:22:34;11.60;99.90
21646;DHT22;10984;45.712;4.800;2022-11-28T12:25:24;11.60;99.90
21646;DHT22;10984;45.712;4.800;2022-11-28T12:31:06;11.60;99.90
21646;DHT22;10984;45.712;4.800;2022-11-28T12:40:02;11.60;99.90
21646;DHT22;10984;45.712;4.800;2022-11-28T13:11:54;11.60;99.90
21646;DHT22;10984;45.712;4.800;2022-11-28T13:14:45;11.50;99.90
21646;DHT22;10984;45.712;4.800;2022-11-28T13:32:00;11.70;99.90
21646;DHT22;10984;45.712;4.800;2022-11-28T13:34:30;11.80;99.90
21646;DHT22;10984;45.712;4.800;2022-11-28T13:37:17;11.80;99.90
21646;DHT22;10984;45.712;4.800;2022-11-28T13:45:52;11.80;99.90
21646;DHT22;10984;45.712;4.800;2022-11-28T13:53:47;11.80;99.90
21646;DHT22;10984;45.712;4.800;2022-11-28T13:56:32;11.80;99.90
21646;DHT22;10984;45.712;4.800;2022-11-28T13:58:59;11.80;99.90
21646;DHT22;10984;45.712;4.800;2022-11-28T14:01:28;11.70;99.90
21646;DHT22;10984;45.712;4.800;2022-11-28T14:04:15;11.60;99.90
21646;DHT22;10984;45.712;4.800;2022-11-28T14:12:33;11.60;99.90
21646;DHT22;10984;45.712;4.800;2022-11-28T14:27:06;11.40;99.90
21646;DHT22;10984;45.712;4.800;2022-11-28T14:29:40;11.40;99.90
21646;DHT22;10984;45.712;4.800;2022-11-28T14:32:14;11.40;99.90
21646;DHT22;10984;45.712;4.800;2022-11-28T14:35:05;11.40;99.90
21646;DHT22;10984;45.712;4.800;2022-11-28T14:39:59;11.30;99.90
21646;DHT22;10984;45.712;4.800;2022-11-28T14:50:56;11.20;99.90
21646;DHT22;10984;45.712;4.800;2022-11-28T14:53:42;11.10;99.90
21646;DHT22;10984;45.712;4.800;2022-11-28T14:56:29;11.00;99.90
21646;DHT22;10984;45.712;4.800;2022-11-28T14:58:57;11.00;99.90
21646;DHT22;10984;45.712;4.800;2022-11-28T15:16:43;10.60;99.90
21646;DHT22;10984;45.712;4.800;2022-11-28T15:25:19;10.50;99.90
21646;DHT22;10984;45.712;4.800;2022-11-28T15:27:46;10.40;99.90
21646;DHT22;10984;45.712;4.800;2022-11-28T15:30:30;10.40;99.90
21646;DHT22;10984;45.712;4.800;2022-11-28T15:32:58;10.40;99.90
21646;DHT22;10984;45.712;4.800;2022-11-28T15:35:25;10.40;99.90
21646;DHT22;10984;45.712;4.800;2022-11-28T15:38:11;10.30;99.90
21646;DHT22;10984;45.712;4.800;2022-11-28T15:40:39;10.30;99.90
21646;DHT22;10984;45.712;4.800;2022-11-28T15:43:13;10.30;99.90
21646;DHT22;10984;45.712;4.800;2022-11-28T15:45:39;10.20;99.90
21646;DHT22;10984;45.712;4.800;2022-11-28T15:48:31;10.20;99.90
21646;DHT22;10984;45.712;4.800;2022-11-28T15:50:57;10.20;99.90
21646;DHT22;10984;45.712;4.800;2022-11-28T15:53:23;10.20;99.90
21646;DHT22;10984;45.712;4.800;2022-11-28T15:58:53;10.10;99.90
21646;DHT22;10984;45.712;4.800;2022-11-28T16:01:22;10.10;99.90
21646;DHT22;10984;45.712;4.800;2022-11-28T16:04:09;10.10;99.90
21646;DHT22;10984;45.712;4.800;2022-11-28T16:06:39;10.10;99.90
21646;DHT22;10984;45.712;4.800;2022-11-28T16:09:27;10.10;99.90
21646;DHT22;10984;45.712;4.800;2022-11-28T16:11:54;10.10;99.90
21646;DHT22;10984;45.712;4.800;2022-11-28T16:16:49;10.00;99.90
21646;DHT22;10984;45.712;4.800;2022-11-28T16:19:34;10.00;99.90
21646;DHT22;10984;45.712;4.800;2022-11-28T16:22:07;9.90;99.90
21646;DHT22;10984;45.712;4.800;2022-11-28T16:24:53;9.90;99.90
21646;DHT22;10984;45.712;4.800;2022-11-28T16:27:41;9.90;99.90
21646;DHT22;10984;45.712;4.800;2022-11-28T16:36:18;9.90;99.90
21646;DHT22;10984;45.712;4.800;2022-11-28T16:38:45;9.80;99.90
21646;DHT22;10984;45.712;4.800;2022-11-28T16:41:32;9.80;99.90
21646;DHT22;10984;45.712;4.800;2022-11-28T16:47:05;9.70;99.90
21646;DHT22;10984;45.712;4.800;2022-11-28T16:52:53;9.70;99.90
21646;DHT22;10984;45.712;4.800;2022-11-28T16:55:38;9.60;99.90
21646;DHT22;10984;45.712;4.800;2022-11-28T16:58:22;9.60;99.90
21646;DHT22;10984;45.712;4.800;2022-11-28T17:01:07;9.60;99.90
21646;DHT22;10984;45.712;4.800;2022-11-28T17:03:51;9.60;99.90
21646;DHT22;10984;45.712;4.800;2022-11-28T17:06:38;9.60;99.90
21646;DHT22;10984;45.712;4.800;2022-11-28T17:09:06;9.50;99.90
21646;DHT22;10984;45.712;4.800;2022-11-28T17:11:34;9.50;99.90
21646;DHT22;10984;45.712;4.800;2022-11-28T17:14:02;9.50;99.90
21646;DHT22;10984;45.712;4.800;2022-11-28T17:16:46;9.40;99.90
21646;DHT22;10984;45.712;4.800;2022-11-28T17:19:11;9.40;99.90
21646;DHT22;10984;45.712;4.800;2022-11-28T17:21:56;9.40;99.90
21646;DHT22;10984;45.712;4.800;2022-11-28T17:24:26;9.40;99.90
21646;DHT22;10984;45.712;4.800;2022-11-28T17:26:53;9.30;99.90
21646;DHT22;10984;45.712;4.800;2022-11-28T17:29:20;9.30;99.90
21646;DHT22;10984;45.712;4.800;2022-11-28T17:31:47;9.30;99.90
21646;DHT22;10984;45.712;4.800;2022-11-28T17:37:07;9.20;99.90
21646;DHT22;10984;45.712;4.800;2022-11-28T17:39:33;9.20;99.90
21646;DHT22;10984;45.712;4.800;2022-11-28T17:41:59;9.10;99.90
21646;DHT22;10984;45.712;4.800;2022-11-28T17:44:43;9.20;99.90
21646;DHT22;10984;45.712;4.800;2022-11-28T17:47:08;9.10;99.90
21646;DHT22;10984;45.712;4.800;2022-11-28T17:49:34;9.10;99.90
21646;DHT22;10984;45.712;4.800;2022-11-28T17:52:00;9.10;99.90
21646;DHT22;10984;45.712;4.800;2022-11-28T17:54:26;9.00;99.90
21646;DHT22;10984;45.712;4.800;2022-11-28T17:56:52;9.00;99.90
21646;DHT22;10984;45.712;4.800;2022-11-28T17:59:20;9.00;99.90
21646;DHT22;10984;45.712;4.800;2022-11-28T18:01:47;9.00;99.90
21646;DHT22;10984;45.712;4.800;2022-11-28T18:04:14;8.90;99.90
21646;DHT22;10984;45.712;4.800;2022-11-28T18:06:58;8.90;99.90
21646;DHT22;10984;45.712;4.800;2022-11-28T18:09:24;8.90;99.90
21646;DHT22;10984;45.712;4.800;2022-11-28T18:11:51;8.90;99.90
21646;DHT22;10984;45.712;4.800;2022-11-28T18:14:16;8.80;99.90
21646;DHT22;10984;45.712;4.800;2022-11-28T18:16:42;8.90;99.90
21646;DHT22;10984;45.712;4.800;2022-11-28T18:19:08;8.80;99.90
21646;DHT22;10984;45.712;4.800;2022-11-28T18:21:34;8.80;99.90
21646;DHT22;10984;45.712;4.800;2022-11-28T18:24:00;8.70;99.90
21646;DHT22;10984;45.712;4.800;2022-11-28T18:26:26;8.70;99.90
21646;DHT22;10984;45.712;4.800;2022-11-28T18:28:52;8.70;99.90
21646;DHT22;10984;45.712;4.800;2022-11-28T18:31:37;8.60;99.90
21646;DHT22;10984;45.712;4.800;2022-11-28T18:34:05;8.50;99.90
21646;DHT22;10984;45.712;4.800;2022-11-28T18:36:32;8.50;99.90
21646;DHT22;10984;45.712;4.800;2022-11-28T18:39:17;8.40;99.90
21646;DHT22;10984;45.712;4.800;2022-11-28T18:41:43;8.40;99.90
21646;DHT22;10984;45.712;4.800;2022-11-28T18:44:10;8.30;99.90
21646;DHT22;10984;45.712;4.800;2022-11-28T18:46:37;8.20;99.90
21646;DHT22;10984;45.712;4.800;2022-11-28T18:49:03;8.20;99.90
21646;DHT22;10984;45.712;4.800;2022-11-28T18:51:31;8.10;99.90
21646;DHT22;10984;45.712;4.800;2022-11-28T18:53:57;8.00;99.90
21646;DHT22;10984;45.712;4.800;2022-11-28T18:56:25;8.00;99.90
21646;DHT22;10984;45.712;4.800;2022-11-28T18:58:52;7.90;99.90
21646;DHT22;10984;45.712;4.800;2022-11-28T19:01:21;7.80;99.90
21646;DHT22;10984;45.712;4.800;2022-11-28T19:06:36;7.70;99.90
21646;DHT22;10984;45.712;4.800;2022-11-28T19:09:06;7.60;99.90
21646;DHT22;10984;45.712;4.800;2022-11-28T19:11:32;7.50;99.90
21646;DHT22;10984;45.712;4.800;2022-11-28T19:13:58;7.50;99.90
21646;DHT22;10984;45.712;4.800;2022-11-28T19:16:26;7.50;99.90
21646;DHT22;10984;45.712;4.800;2022-11-28T19:18:53;7.40;99.90
21646;DHT22;10984;45.712;4.800;2022-11-28T19:21:22;7.50;99.90
21646;DHT22;10984;45.712;4.800;2022-11-28T19:23:48;7.50;99.90
21646;DHT22;10984;45.712;4.800;2022-11-28T19:26:18;7.40;99.90
21646;DHT22;10984;45.712;4.800;2022-11-28T19:28:44;7.40;99.90
21646;DHT22;10984;45.712;4.800;2022-11-28T19:34:14;7.40;99.90
21646;DHT22;10984;45.712;4.800;2022-11-28T19:36:50;7.40;99.90
21646;DHT22;10984;45.712;4.800;2022-11-28T19:39:35;7.30;99.90
21646;DHT22;10984;45.712;4.800;2022-11-28T19:42:00;7.40;99.90
21646;DHT22;10984;45.712;4.800;2022-11-28T19:44:26;7.40;99.90
21646;DHT22;10984;45.712;4.800;2022-11-28T19:46:53;7.40;99.90
21646;DHT22;10984;45.712;4.800;2022-11-28T19:49:22;7.40;99.90
21646;DHT22;10984;45.712;4.800;2022-11-28T19:51:48;7.30;99.90
21646;DHT22;10984;45.712;4.800;2022-11-28T19:54:15;7.30;99.90
21646;DHT22;10984;45.712;4.800;2022-11-28T19:56:44;7.40;99.90
21646;DHT22;10984;45.712;4.800;2022-11-28T19:59:10;7.40;99.90
21646;DHT22;10984;45.712;4.800;2022-11-28T20:01:37;7.40;99.90
21646;DHT22;10984;45.712;4.800;2022-11-28T20:04:03;7.40;99.90
21646;DHT22;10984;45.712;4.800;2022-11-28T20:06:31;7.40;99.90
21646;DHT22;10984;45.712;4.800;2022-11-28T20:08:59;7.40;99.90
21646;DHT22;10984;45.712;4.800;2022-11-28T20:11:28;7.40;99.90
21646;DHT22;10984;45.712;4.800;2022-11-28T20:13:56;7.40;99.90
21646;DHT22;10984;45.712;4.800;2022-11-28T20:16:23;7.40;99.90
21646;DHT22;10984;45.712;4.800;2022-11-28T20:18:48;7.50;99.90
21646;DHT22;10984;45.712;4.800;2022-11-28T20:21:16;7.40;99.90
21646;DHT22;10984;45.712;4.800;2022-11-28T20:23:44;7.40;99.90
21646;DHT22;10984;45.712;4.800;2022-11-28T20:26:12;7.50;99.90
21646;DHT22;10984;45.712;4.800;2022-11-28T20:28:39;7.50;99.90
21646;DHT22;10984;45.712;4.800;2022-11-28T20:31:14;7.40;99.90
21646;DHT22;10984;45.712;4.800;2022-11-28T20:33:40;7.40;99.90
21646;DHT22;10984;45.712;4.800;2022-11-28T20:36:08;7.40;99.90
21646;DHT22;10984;45.712;4.800;2022-11-28T20:38:34;7.40;99.90
21646;DHT22;10984;45.712;4.800;2022-11-28T20:41:01;7.40;99.90
21646;DHT22;10984;45.712;4.800;2022-11-28T20:43:29;7.30;99.90
21646;DHT22;10984;45.712;4.800;2022-11-28T20:48:44;7.20;99.90
21646;DHT22;10984;45.712;4.800;2022-11-28T20:51:12;7.10;99.90
21646;DHT22;10984;45.712;4.800;2022-11-28T20:53:38;7.10;99.90
21646;DHT22;10984;45.712;4.800;2022-11-28T20:58:52;7.00;99.90
21646;DHT22;10984;45.712;4.800;2022-11-28T21:01:20;7.00;99.90
21646;DHT22;10984;45.712;4.800;2022-11-28T21:03:47;6.90;99.90
21646;DHT22;10984;45.712;4.800;2022-11-28T21:06:13;7.00;99.90
21646;DHT22;10984;45.712;4.800;2022-11-28T21:08:39;7.00;99.90
21646;DHT22;10984;45.712;4.800;2022-11-28T21:11:06;7.00;99.90
21646;DHT22;10984;45.712;4.800;2022-11-28T21:13:32;7.00;99.90
21646;DHT22;10984;45.712;4.800;2022-11-28T21:16:04;7.00;99.90
21646;DHT22;10984;45.712;4.800;2022-11-28T21:18:30;7.00;99.90
21646;DHT22;10984;45.712;4.800;2022-11-28T21:20:56;7.00;99.90
21646;DHT22;10984;45.712;4.800;2022-11-28T21:23:22;7.00;99.90